Time;durP1;ratioP1;P1;durP2;ratioP2;P2;SDS_P1;SDS_P2;PMS_P1;PMS_P2;Temp;Humidity;BMP_temperature;BMP_pressure;BME280_temperature;BME280_humidity;BME280_pressure;Samples;Min_cycle;Max_cycle;Signal;HPM_P1;HPM_P2
2023/07/21 00:01:40;;;;;;;6.60;4.47;;;19.30;62.40;;;;;;5109209;27;20039;-61
2023/07/21 00:04:06;;;;;;;8.60;5.45;;;19.30;62.40;;;;;;5114511;27;20051;-61
2023/07/21 00:06:33;;;;;;;8.77;4.90;;;19.30;62.70;;;;;;5116140;27;20051;-62
2023/07/21 00:09:05;;;;;;;5.72;4.07;;;19.10;63.10;;;;;;5117425;28;20839;-62
2023/07/21 00:11:33;;;;;;;7.68;4.43;;;19.10;63.50;;;;;;5115108;27;20410;-62
2023/07/21 00:13:59;;;;;;;6.72;3.80;;;19.10;63.50;;;;;;5102207;28;20048;-62
2023/07/21 00:16:27;;;;;;;4.85;3.65;;;19.10;63.30;;;;;;5111697;28;20563;-62
2023/07/21 00:18:54;;;;;;;4.80;3.53;;;19.20;63.30;;;;;;5113803;28;20093;-62
2023/07/21 00:21:22;;;;;;;6.55;3.50;;;19.10;63.30;;;;;;5114667;28;20052;-61
2023/07/21 00:23:49;;;;;;;4.20;3.20;;;19.10;63.30;;;;;;5117087;28;20051;-63
2023/07/21 00:26:17;;;;;;;5.70;3.22;;;19.20;63.40;;;;;;5115624;28;20051;-61
2023/07/21 00:28:44;;;;;;;5.47;3.42;;;19.20;63.40;;;;;;5098792;28;20059;-62
2023/07/21 00:31:11;;;;;;;4.90;3.03;;;19.10;63.50;;;;;;5111967;28;20055;-61
2023/07/21 00:33:38;;;;;;;4.35;3.03;;;19.10;63.80;;;;;;5115080;28;20040;-61
2023/07/21 00:36:06;;;;;;;4.82;3.10;;;19.10;63.80;;;;;;5093023;28;20131;-61
2023/07/21 00:38:33;;;;;;;4.72;3.17;;;19.10;63.90;;;;;;5095176;28;20482;-61
2023/07/21 00:41:01;;;;;;;4.50;3.28;;;19.10;63.90;;;;;;5111915;28;20052;-62
2023/07/21 00:43:29;;;;;;;4.72;2.90;;;19.10;64.10;;;;;;5118779;28;20111;-63
2023/07/21 00:45:56;;;;;;;5.22;3.00;;;19.00;64.40;;;;;;5111594;28;20039;-60
2023/07/21 00:48:23;;;;;;;4.68;2.70;;;19.10;64.40;;;;;;5097108;28;20043;-62
2023/07/21 00:50:52;;;;;;;4.85;3.05;;;19.10;64.40;;;;;;5110081;28;20060;-60
2023/07/21 00:53:20;;;;;;;5.75;2.80;;;19.00;64.50;;;;;;5116406;27;20051;-61
2023/07/21 00:55:48;;;;;;;5.18;2.90;;;19.00;64.30;;;;;;5094566;28;20039;-61
2023/07/21 00:58:15;;;;;;;3.65;2.50;;;19.10;64.30;;;;;;5115128;28;20126;-61
2023/07/21 01:00:43;;;;;;;4.88;3.00;;;19.10;64.20;;;;;;5105854;28;20043;-61
2023/07/21 01:03:12;;;;;;;4.13;3.13;;;19.10;64.20;;;;;;5077307;28;20055;-61
2023/07/21 01:05:41;;;;;;;4.55;2.78;;;19.10;64.20;;;;;;5088550;28;20050;-61
2023/07/21 01:08:09;;;;;;;3.75;2.55;;;19.00;64.30;;;;;;5094113;28;20071;-61
2023/07/21 01:10:38;;;;;;;4.47;3.22;;;19.00;64.80;;;;;;5115010;28;20062;-61
2023/07/21 01:13:07;;;;;;;4.57;2.77;;;18.90;65.40;;;;;;5096973;28;20050;-62
2023/07/21 01:15:36;;;;;;;4.83;3.30;;;19.00;65.60;;;;;;5115676;28;20130;-60
2023/07/21 01:18:08;;;;;;;4.15;2.92;;;19.00;65.60;;;;;;5113004;27;20435;-62
2023/07/21 01:20:36;;;;;;;4.75;3.15;;;18.90;65.90;;;;;;5115259;27;20546;-62
2023/07/21 01:23:10;;;;;;;5.13;3.38;;;18.90;65.90;;;;;;5099642;27;20043;-63
2023/07/21 01:25:42;;;;;;;6.65;3.88;;;19.00;66.00;;;;;;5115843;27;20063;-62
2023/07/21 01:28:12;;;;;;;5.05;3.35;;;18.90;66.00;;;;;;5120993;27;20043;-62
2023/07/21 01:30:40;;;;;;;5.45;3.28;;;18.90;65.90;;;;;;5117004;27;20104;-61
2023/07/21 01:33:09;;;;;;;4.65;3.08;;;19.00;65.80;;;;;;5119641;27;20047;-62
2023/07/21 01:35:37;;;;;;;4.47;3.15;;;18.90;66.10;;;;;;5116956;27;20044;-62
2023/07/21 01:38:07;;;;;;;4.38;3.03;;;18.90;66.10;;;;;;5095924;27;20039;-61
2023/07/21 01:40:36;;;;;;;5.22;3.50;;;18.90;66.40;;;;;;5118687;27;20055;-62
2023/07/21 01:43:04;;;;;;;5.15;3.20;;;18.80;66.70;;;;;;5115927;27;20746;-62
2023/07/21 01:45:34;;;;;;;4.43;3.13;;;18.80;66.80;;;;;;5117219;27;20078;-61
2023/07/21 01:48:01;;;;;;;4.15;2.97;;;18.80;66.60;;;;;;5115302;27;20111;-62
2023/07/21 01:50:29;;;;;;;4.65;3.17;;;18.90;66.40;;;;;;5116869;27;20051;-61
2023/07/21 01:53:00;;;;;;;4.88;2.88;;;18.70;66.90;;;;;;5117250;27;20043;-61
2023/07/21 01:55:31;;;;;;;;;;;18.80;67.00;;;;;;5096731;27;20048;-61
2023/07/21 01:58:01;;;;;;;5.40;3.40;;;18.80;66.90;;;;;;5112158;27;19924;-62
2023/07/21 02:00:38;;;;;;;4.57;3.17;;;18.80;66.90;;;;;;5121267;27;20106;-61
2023/07/21 02:03:08;;;;;;;4.10;2.75;;;18.80;67.00;;;;;;5098385;27;20487;-61
2023/07/21 02:05:35;;;;;;;4.75;3.25;;;18.70;67.30;;;;;;5098258;27;20048;-61
2023/07/21 02:08:02;;;;;;;6.00;3.50;;;18.70;67.30;;;;;;5119174;27;20098;-62
2023/07/21 02:10:29;;;;;;;4.60;3.20;;;18.70;67.20;;;;;;5118991;27;20047;-63
2023/07/21 02:13:11;;;;;;;5.50;3.17;;;18.80;66.90;;;;;;5119945;27;20051;-64
2023/07/21 02:15:41;;;;;;;4.68;3.00;;;18.80;67.00;;;;;;5097973;27;20052;-61
2023/07/21 02:18:08;;;;;;;4.47;2.92;;;18.70;67.10;;;;;;5109158;27;20152;-61
2023/07/21 02:20:35;;;;;;;4.60;2.92;;;18.70;67.50;;;;;;5114569;27;20050;-62
2023/07/21 02:23:04;;;;;;;6.00;3.20;;;18.60;67.80;;;;;;5114982;27;20051;-62
2023/07/21 02:25:31;;;;;;;4.60;2.83;;;18.60;68.00;;;;;;5120267;27;20151;-62
2023/07/21 02:27:59;;;;;;;4.50;3.03;;;18.60;68.10;;;;;;5113840;27;20468;-63
2023/07/21 02:30:27;;;;;;;4.05;2.75;;;18.60;67.80;;;;;;5099531;27;20047;-62
2023/07/21 02:32:55;;;;;;;4.30;2.80;;;18.60;67.80;;;;;;5098302;27;20406;-62
2023/07/21 02:35:22;;;;;;;5.95;2.92;;;18.60;67.70;;;;;;5090758;27;20055;-62
2023/07/21 02:37:52;;;;;;;4.40;2.50;;;18.60;68.00;;;;;;5118568;27;20126;-60
2023/07/21 02:40:20;;;;;;;4.43;2.70;;;18.60;68.00;;;;;;5110622;27;20185;-61
2023/07/21 02:42:48;;;;;;;4.40;2.60;;;18.60;68.30;;;;;;5113448;27;20043;-62
2023/07/21 02:45:15;;;;;;;3.67;2.45;;;18.60;68.30;;;;;;5116299;27;20062;-61
2023/07/21 02:47:42;;;;;;;4.80;3.22;;;18.60;68.50;;;;;;5117829;27;20043;-60
2023/07/21 02:50:11;;;;;;;4.10;2.70;;;18.50;68.80;;;;;;5113384;27;20039;-61
2023/07/21 02:52:40;;;;;;;4.90;2.78;;;18.40;69.20;;;;;;5119938;27;20051;-62
2023/07/21 02:55:08;;;;;;;5.03;2.72;;;18.40;69.30;;;;;;5099475;27;20055;-62
2023/07/21 02:57:36;;;;;;;3.83;2.45;;;18.40;69.20;;;;;;5094013;27;20046;-62
2023/07/21 03:00:10;;;;;;;4.85;2.55;;;18.40;69.20;;;;;;5097149;27;20060;-63
2023/07/21 03:02:43;;;;;;;4.63;2.53;;;18.30;69.20;;;;;;5094152;27;20128;-61
2023/07/21 03:05:12;;;;;;;3.70;2.63;;;18.20;69.40;;;;;;5116249;27;20034;-63
2023/07/21 03:07:39;;;;;;;3.72;2.53;;;18.20;69.50;;;;;;5097118;27;20047;-61
2023/07/21 03:10:11;;;;;;;3.30;2.47;;;18.30;69.30;;;;;;5109469;27;20051;-62
2023/07/21 03:12:38;;;;;;;3.72;2.67;;;18.30;69.20;;;;;;5112311;27;20054;-62
2023/07/21 03:15:09;;;;;;;3.78;2.47;;;18.30;69.50;;;;;;5090904;27;20436;-62
2023/07/21 03:18:09;;;;;;;6.07;2.63;;;18.20;70.20;;;;;;5099659;27;20047;-62
2023/07/21 03:20:59;;;;;;;8.43;3.97;;;18.20;70.70;;;;;;5098110;27;20410;-62
2023/07/21 03:23:27;;;;;;;3.80;2.35;;;18.10;71.20;;;;;;5110082;27;20097;-61
2023/07/21 03:25:55;;;;;;;3.42;2.42;;;18.20;71.40;;;;;;5099111;27;20051;-62
2023/07/21 03:28:23;;;;;;;3.58;2.58;;;18.20;71.40;;;;;;5117484;27;20600;-62
2023/07/21 03:30:58;;;;;;;3.85;2.40;;;18.20;71.90;;;;;;5094185;28;20047;-62
2023/07/21 03:33:25;;;;;;;4.70;3.15;;;18.20;72.50;;;;;;5117200;27;20112;-62
2023/07/21 03:36:06;;;;;;;4.20;2.65;;;18.10;72.70;;;;;;5097793;27;20050;-63
2023/07/21 03:38:35;;;;;;;4.85;2.88;;;18.10;72.80;;;;;;5096892;27;20378;-62
2023/07/21 03:41:03;;;;;;;3.90;2.42;;;18.10;72.90;;;;;;5091122;27;20047;-62
2023/07/21 03:43:33;;;;;;;3.78;2.47;;;18.10;72.80;;;;;;5095827;28;20048;-61
2023/07/21 03:46:02;;;;;;;4.55;2.75;;;18.10;72.60;;;;;;5108729;27;20073;-62
2023/07/21 03:48:34;;;;;;;4.30;2.60;;;18.10;73.20;;;;;;5096843;28;20578;-61
2023/07/21 03:51:04;;;;;;;3.88;2.58;;;18.10;73.60;;;;;;5097114;27;20044;-62
2023/07/21 03:53:38;;;;;;;4.25;2.72;;;18.00;74.00;;;;;;5096028;27;20047;-61
2023/07/21 03:56:09;;;;;;;5.88;2.95;;;18.00;74.30;;;;;;5094708;28;20043;-60
2023/07/21 03:58:35;;;;;;;6.50;3.20;;;18.10;74.20;;;;;;5096332;28;20058;-60
2023/07/21 04:01:02;;;;;;;3.83;2.60;;;18.10;73.60;;;;;;5113848;27;20059;-62
2023/07/21 04:03:29;;;;;;;4.32;2.72;;;18.10;73.80;;;;;;5106193;27;20129;-62
2023/07/21 04:05:57;;;;;;;4.53;3.13;;;18.10;74.10;;;;;;5115914;27;20064;-63
2023/07/21 04:08:24;;;;;;;5.05;2.95;;;18.10;74.60;;;;;;5112511;27;20130;-63
2023/07/21 04:10:52;;;;;;;4.75;3.03;;;18.00;74.90;;;;;;5116555;28;20071;-62
2023/07/21 04:13:19;;;;;;;4.88;3.10;;;17.90;75.10;;;;;;5099101;28;20491;-63
2023/07/21 04:15:51;;;;;;;5.32;3.20;;;18.00;74.80;;;;;;5111651;28;20096;-62
2023/07/21 04:18:18;;;;;;;3.85;2.78;;;18.00;74.40;;;;;;5115668;28;20125;-61
2023/07/21 04:20:45;;;;;;;4.22;2.75;;;18.00;74.80;;;;;;5115848;28;20414;-62
2023/07/21 04:23:12;;;;;;;5.50;2.78;;;17.90;75.00;;;;;;5112124;28;20051;-62
2023/07/21 04:25:40;;;;;;;5.15;2.97;;;17.90;75.00;;;;;;5093711;28;20558;-62
2023/07/21 04:28:09;;;;;;;5.32;2.22;;;17.90;75.40;;;;;;5106602;28;20070;-62
2023/07/21 04:30:37;;;;;;;4.07;2.75;;;17.90;75.40;;;;;;5111634;28;20058;-60
2023/07/21 04:33:05;;;;;;;4.38;2.60;;;17.90;75.20;;;;;;5097394;28;20055;-62
2023/07/21 04:35:33;;;;;;;3.80;2.75;;;17.90;75.20;;;;;;5098343;28;20067;-60
2023/07/21 04:38:03;;;;;;;3.80;2.58;;;18.00;75.30;;;;;;5098352;28;20067;-62
2023/07/21 04:40:36;;;;;;;4.55;2.58;;;18.00;75.00;;;;;;5098725;28;20133;-63
2023/07/21 04:43:03;;;;;;;4.35;2.72;;;18.00;75.40;;;;;;5097796;28;20055;-63
2023/07/21 04:45:32;;;;;;;3.80;2.42;;;18.00;75.10;;;;;;5096947;28;20048;-62
2023/07/21 04:48:05;;;;;;;3.75;2.67;;;18.00;75.10;;;;;;5094911;28;20508;-60
2023/07/21 04:50:40;;;;;;;4.97;2.75;;;18.00;75.40;;;;;;5098837;28;20054;-62
2023/07/21 04:53:07;;;;;;;3.58;2.30;;;18.10;75.60;;;;;;5102455;27;20122;-61
2023/07/21 04:55:34;;;;;;;4.13;2.50;;;18.00;75.70;;;;;;5102555;27;20036;-63
2023/07/21 04:58:02;;;;;;;3.88;2.70;;;18.00;76.10;;;;;;5100928;27;20096;-63
2023/07/21 05:00:29;;;;;;;4.05;2.20;;;18.00;75.90;;;;;;5116760;27;20043;-61
2023/07/21 05:02:57;;;;;;;4.60;3.20;;;18.00;75.50;;;;;;5099726;27;20043;-62
2023/07/21 05:05:24;;;;;;;4.57;2.58;;;18.10;75.10;;;;;;5098682;27;20055;-62
2023/07/21 05:07:55;;;;;;;3.80;2.70;;;18.10;75.20;;;;;;5100644;27;20136;-61
2023/07/21 05:10:23;;;;;;;4.88;2.80;;;18.10;75.40;;;;;;5121284;27;20943;-62
2023/07/21 05:12:50;;;;;;;4.25;2.67;;;18.00;75.70;;;;;;5102473;27;20043;-59
2023/07/21 05:15:40;;;;;;;4.47;2.97;;;17.90;76.10;;;;;;5097262;27;20051;-62
2023/07/21 05:18:29;;;;;;;4.00;2.85;;;18.00;76.40;;;;;;5099640;27;20112;-62
2023/07/21 05:21:09;;;;;;;4.88;3.00;;;18.00;76.50;;;;;;5099883;27;20059;-60
2023/07/21 05:23:51;;;;;;;3.83;2.53;;;18.00;76.40;;;;;;5097653;27;20047;-62
2023/07/21 05:26:21;;;;;;;4.10;2.85;;;18.10;76.30;;;;;;5097658;27;20118;-62
2023/07/21 05:28:49;;;;;;;4.63;2.80;;;18.10;76.60;;;;;;5102383;27;20402;-62
2023/07/21 05:31:17;;;;;;;4.20;2.53;;;18.10;76.70;;;;;;5094902;27;20414;-62
2023/07/21 05:34:12;;;;;;;4.57;2.85;;;18.00;76.80;;;;;;5115962;27;20043;-62
2023/07/21 05:36:39;;;;;;;4.10;2.78;;;18.00;77.30;;;;;;5101587;27;20048;-62
2023/07/21 05:39:06;;;;;;;4.13;2.97;;;18.00;77.60;;;;;;5099866;27;20063;-60
2023/07/21 05:41:33;;;;;;;4.63;2.90;;;17.90;77.90;;;;;;5100014;27;20051;-61
2023/07/21 05:44:00;;;;;;;5.07;3.05;;;17.80;78.00;;;;;;5110304;27;20066;-62
2023/07/21 05:46:28;;;;;;;4.43;2.67;;;17.80;78.20;;;;;;5102150;27;20066;-63
2023/07/21 05:49:00;;;;;;;4.18;2.78;;;17.80;78.20;;;;;;5097325;27;20067;-63
2023/07/21 05:51:28;;;;;;;5.10;3.13;;;17.80;78.30;;;;;;5116861;27;20118;-62
2023/07/21 05:54:03;;;;;;;4.32;2.70;;;17.80;78.40;;;;;;5102508;27;20406;-62
2023/07/21 05:56:31;;;;;;;6.72;3.30;;;17.80;78.40;;;;;;5100100;27;20043;-62
2023/07/21 05:59:07;;;;;;;5.35;2.92;;;17.80;78.70;;;;;;5111023;27;20127;-61
2023/07/21 06:01:36;;;;;;;6.05;2.72;;;17.80;78.80;;;;;;5091165;27;20497;-61
2023/07/21 06:04:04;;;;;;;4.53;2.53;;;17.90;78.60;;;;;;5114408;27;20143;-61
2023/07/21 06:06:33;;;;;;;3.55;2.60;;;17.90;78.70;;;;;;5097159;27;20051;-61
2023/07/21 06:09:23;;;;;;;4.57;2.88;;;17.90;78.60;;;;;;5111490;27;20395;-62
2023/07/21 06:12:03;;;;;;;5.07;3.28;;;18.00;78.50;;;;;;5081202;27;20136;-61
2023/07/21 06:14:46;;;;;;;15.02;10.05;;;18.10;78.10;;;;;;5102575;27;20044;-62
2023/07/21 06:17:38;;;;;;;19.52;16.23;;;18.10;77.20;;;;;;5097904;27;20043;-62
2023/07/21 06:20:07;;;;;;;17.52;13.77;;;18.20;77.10;;;;;;5112866;27;20036;-62
2023/07/21 06:22:36;;;;;;;13.30;9.53;;;18.20;77.30;;;;;;5099352;27;20047;-61
2023/07/21 06:25:03;;;;;;;9.55;7.70;;;18.20;77.10;;;;;;5091111;27;20050;-63
2023/07/21 06:27:30;;;;;;;8.25;5.38;;;18.20;77.30;;;;;;5113194;27;20058;-59
2023/07/21 06:29:57;;;;;;;7.57;5.00;;;18.20;77.50;;;;;;5096002;27;20043;-62
2023/07/21 06:32:27;;;;;;;7.90;4.22;;;18.20;77.70;;;;;;5096384;27;20054;-62
2023/07/21 06:34:58;;;;;;;6.70;4.32;;;18.20;77.70;;;;;;5096226;27;20070;-63
2023/07/21 06:37:44;;;;;;;8.77;6.63;;;18.30;77.60;;;;;;5117977;27;20156;-60
2023/07/21 06:40:31;;;;;;;15.15;10.27;;;18.30;77.20;;;;;;5099163;27;20097;-62
2023/07/21 06:43:17;;;;;;;12.23;7.90;;;18.40;77.60;;;;;;5116163;27;20046;-62
2023/07/21 06:46:07;;;;;;;9.32;6.90;;;18.40;77.90;;;;;;5068195;27;20044;-61
2023/07/21 06:48:54;;;;;;;8.35;5.75;;;18.40;78.10;;;;;;5096674;27;20126;-62
2023/07/21 06:51:27;;;;;;;7.80;5.22;;;18.40;78.00;;;;;;5115770;27;20047;-61
2023/07/21 06:53:55;;;;;;;7.43;4.43;;;18.40;77.90;;;;;;5108398;27;20513;-61
2023/07/21 06:56:22;;;;;;;5.78;4.00;;;18.40;77.60;;;;;;5089546;27;20414;-62
2023/07/21 06:58:49;;;;;;;5.68;3.40;;;18.40;77.30;;;;;;5114743;27;20044;-61
2023/07/21 07:01:16;;;;;;;4.97;3.38;;;18.50;77.00;;;;;;5110066;27;20047;-62
2023/07/21 07:03:42;;;;;;;6.38;3.63;;;18.50;77.20;;;;;;5112379;27;20047;-61
2023/07/21 07:06:09;;;;;;;6.53;3.72;;;18.50;77.00;;;;;;5115014;27;20055;-63
2023/07/21 07:08:37;;;;;;;7.20;4.53;;;18.50;76.80;;;;;;5117266;27;20121;-62
2023/07/21 07:11:05;;;;;;;12.43;7.07;;;18.60;76.90;;;;;;5098734;27;20494;-61
2023/07/21 07:13:32;;;;;;;19.85;13.85;;;18.70;75.40;;;;;;5098468;28;20401;-62
2023/07/21 07:15:59;;;;;;;15.70;11.95;;;18.70;75.90;;;;;;5113791;27;20075;-62
2023/07/21 07:18:26;;;;;;;13.73;9.82;;;18.70;76.60;;;;;;5109763;27;20051;-61
2023/07/21 07:20:55;;;;;;;11.43;7.75;;;18.70;76.20;;;;;;5111652;27;20047;-60
2023/07/21 07:23:22;;;;;;;10.75;7.40;;;18.80;76.90;;;;;;5116990;27;20047;-61
2023/07/21 07:25:50;;;;;;;8.27;6.47;;;18.80;76.10;;;;;;5116117;27;20043;-61
2023/07/21 07:28:20;;;;;;;8.50;5.20;;;18.80;76.70;;;;;;5090321;27;20490;-61
2023/07/21 07:30:48;;;;;;;5.35;4.03;;;18.80;76.80;;;;;;5114182;27;20501;-60
2023/07/21 07:33:15;;;;;;;5.18;3.65;;;18.70;77.40;;;;;;5116508;27;20102;-61
2023/07/21 07:35:48;;;;;;;4.97;3.50;;;18.60;77.40;;;;;;5113744;27;20035;-61
2023/07/21 07:38:18;;;;;;;5.68;3.33;;;18.60;77.50;;;;;;5114160;27;20055;-61
2023/07/21 07:40:45;;;;;;;5.78;3.42;;;18.70;77.20;;;;;;5116335;27;20053;-61
2023/07/21 07:43:11;;;;;;;4.68;3.05;;;18.80;76.90;;;;;;5114260;27;20407;-62
2023/07/21 07:45:40;;;;;;;5.07;3.03;;;18.80;76.80;;;;;;5117658;27;20051;-61
2023/07/21 07:48:07;;;;;;;5.22;3.25;;;18.70;76.50;;;;;;5116928;27;20501;-62
2023/07/21 07:50:37;;;;;;;4.03;2.92;;;18.70;76.70;;;;;;5116566;27;20448;-60
2023/07/21 07:53:04;;;;;;;5.00;3.00;;;18.70;76.60;;;;;;5114034;27;20693;-61
2023/07/21 07:55:32;;;;;;;5.68;2.97;;;18.80;76.30;;;;;;5116893;27;20047;-62
2023/07/21 07:58:01;;;;;;;3.90;2.42;;;18.90;76.40;;;;;;5116446;27;20047;-61
2023/07/21 08:00:28;;;;;;;4.55;2.63;;;19.10;76.00;;;;;;5116534;27;20055;-75
2023/07/21 08:02:56;;;;;;;4.72;2.90;;;19.20;75.80;;;;;;5116566;28;20058;-75
2023/07/21 08:05:23;;;;;;;4.70;2.80;;;19.30;75.30;;;;;;5112690;27;20051;-76
2023/07/21 08:07:50;;;;;;;3.75;2.53;;;19.40;75.30;;;;;;5112095;27;20051;-76
2023/07/21 08:10:17;;;;;;;4.55;2.78;;;19.40;74.80;;;;;;5115856;27;20060;-76
2023/07/21 08:12:44;;;;;;;3.60;2.60;;;19.50;75.00;;;;;;5116507;27;20498;-75
2023/07/21 08:15:12;;;;;;;5.38;2.80;;;19.70;75.00;;;;;;5112494;28;20063;-75
2023/07/21 08:17:39;;;;;;;3.65;2.60;;;19.90;74.30;;;;;;5114538;28;20047;-75
2023/07/21 08:20:09;;;;;;;6.60;2.60;;;20.10;73.90;;;;;;5113744;28;20054;-76
2023/07/21 08:22:36;;;;;;;4.50;2.70;;;20.30;73.30;;;;;;5114429;28;20047;-75
2023/07/21 08:25:05;;;;;;;4.18;2.80;;;20.50;72.70;;;;;;5115912;28;20070;-76
2023/07/21 08:27:34;;;;;;;5.22;2.45;;;20.70;72.50;;;;;;5121194;27;20512;-75
2023/07/21 08:30:01;;;;;;;5.40;2.83;;;20.90;71.50;;;;;;5119843;27;20051;-75
2023/07/21 08:32:27;;;;;;;4.07;2.53;;;21.10;70.70;;;;;;5119531;27;20043;-75
2023/07/21 08:34:55;;;;;;;3.20;2.60;;;21.20;69.90;;;;;;5120695;27;20040;-77
2023/07/21 08:37:23;;;;;;;3.97;2.47;;;21.40;69.80;;;;;;5118810;27;20059;-76
2023/07/21 08:39:50;;;;;;;4.15;2.60;;;21.50;69.30;;;;;;5119444;27;20046;-77
2023/07/21 08:42:18;;;;;;;3.85;2.40;;;21.60;69.00;;;;;;5120329;27;20040;-77
2023/07/21 08:44:45;;;;;;;4.30;2.40;;;21.60;68.80;;;;;;5119373;27;20069;-73
2023/07/21 08:47:12;;;;;;;4.10;2.33;;;21.60;67.40;;;;;;5117121;27;20127;-75
2023/07/21 08:49:40;;;;;;;3.65;2.45;;;21.70;66.00;;;;;;5117536;27;20047;-75
2023/07/21 08:52:07;;;;;;;7.22;2.40;;;21.80;66.00;;;;;;5116873;28;20146;-75
2023/07/21 08:54:35;;;;;;;3.40;2.25;;;22.10;64.40;;;;;;5116858;28;20062;-76
2023/07/21 08:57:03;;;;;;;4.20;2.15;;;22.30;63.10;;;;;;5116191;28;20036;-76
2023/07/21 08:59:30;;;;;;;3.88;2.40;;;22.30;63.20;;;;;;5116059;27;20052;-76
2023/07/21 09:01:57;;;;;;;2.97;2.10;;;22.40;62.70;;;;;;5116731;28;20044;-75
2023/07/21 09:04:25;;;;;;;3.17;2.00;;;22.40;62.70;;;;;;5115021;28;20059;-75
2023/07/21 09:06:54;;;;;;;3.65;1.90;;;22.30;62.40;;;;;;5118936;28;20404;-75
2023/07/21 09:09:22;;;;;;;4.18;2.30;;;22.30;63.00;;;;;;5116759;28;20039;-75
2023/07/21 09:11:51;;;;;;;3.58;2.22;;;22.40;62.80;;;;;;5116165;28;20049;-76
2023/07/21 09:14:18;;;;;;;2.65;2.08;;;22.50;63.10;;;;;;5116378;28;20044;-75
2023/07/21 09:16:45;;;;;;;4.07;2.35;;;22.50;63.30;;;;;;5117340;28;20051;-74
2023/07/21 09:19:12;;;;;;;3.53;2.22;;;22.50;63.10;;;;;;5117712;28;20482;-75
2023/07/21 09:21:39;;;;;;;4.63;2.10;;;22.60;62.80;;;;;;5115489;28;20043;-74
2023/07/21 09:24:08;;;;;;;4.63;2.30;;;22.70;62.40;;;;;;5119269;27;20042;-75
2023/07/21 09:26:35;;;;;;;4.05;2.53;;;22.70;61.80;;;;;;5121033;28;20046;-75
2023/07/21 09:29:18;;;;;;;3.67;2.15;;;22.80;61.40;;;;;;5117936;28;20058;-75
2023/07/21 09:31:47;;;;;;;3.58;2.10;;;23.00;61.00;;;;;;5113888;28;20067;-76
2023/07/21 09:34:14;;;;;;;3.45;2.17;;;23.30;60.70;;;;;;5117658;28;20047;-76
2023/07/21 09:36:45;;;;;;;3.78;2.17;;;23.40;60.30;;;;;;5119518;28;20047;-75
2023/07/21 09:39:16;;;;;;;3.47;2.08;;;23.60;60.10;;;;;;5118251;28;20474;-73
2023/07/21 09:41:43;;;;;;;2.80;1.77;;;23.70;60.00;;;;;;5116384;28;20494;-74
2023/07/21 09:44:13;;;;;;;4.82;1.80;;;23.70;59.70;;;;;;5117944;28;20046;-73
2023/07/21 09:46:41;;;;;;;3.95;2.10;;;23.70;59.40;;;;;;5113854;28;20036;-73
2023/07/21 09:49:08;;;;;;;3.28;2.20;;;23.60;58.50;;;;;;5120530;27;20051;-73
2023/07/21 09:52:17;;;;;;;3.55;2.30;;;23.70;58.20;;;;;;5044906;28;20607;-71
2023/07/21 09:54:46;;;;;;;5.35;3.25;;;23.90;58.10;;;;;;5064009;28;20125;-71
2023/07/21 09:57:17;;;;;;;10.95;7.85;;;24.10;57.80;;;;;;5061520;28;20045;-72
2023/07/21 09:59:46;;;;;;;12.25;9.35;;;24.30;57.70;;;;;;5061991;28;20052;-72
2023/07/21 10:02:13;;;;;;;16.38;12.13;;;24.30;57.30;;;;;;5059214;28;20547;-72
2023/07/21 10:04:42;;;;;;;;;;;24.30;57.20;;;;;;5063726;28;20072;-71
2023/07/21 10:07:12;;;;;;;16.85;13.93;;;24.20;57.00;;;;;;5061320;28;19982;-72
2023/07/21 10:09:40;;;;;;;;;;;24.10;56.50;;;;;;5062370;28;20049;-71
2023/07/21 10:12:10;;;;;;;9.03;6.90;;;24.00;56.50;;;;;;5059760;28;20007;-74
2023/07/21 10:14:39;;;;;;;6.60;4.95;;;23.90;56.30;;;;;;5064114;28;20629;-71
2023/07/21 10:17:10;;;;;;;7.95;5.03;;;23.80;56.60;;;;;;5058127;28;20071;-71
2023/07/21 10:19:40;;;;;;;6.85;5.38;;;23.90;56.80;;;;;;5063347;28;20493;-71
2023/07/21 10:22:11;;;;;;;9.88;6.03;;;23.90;57.00;;;;;;5079103;28;20044;-73
2023/07/21 10:24:46;;;;;;;7.20;4.97;;;23.90;56.60;;;;;;5081259;28;20059;-71
2023/07/21 10:27:21;;;;;;;5.57;3.85;;;23.90;56.60;;;;;;5099153;28;20052;-71
2023/07/21 10:29:51;;;;;;;6.40;4.40;;;24.00;56.70;;;;;;5079272;28;20093;-71
2023/07/21 10:32:19;;;;;;;6.57;3.92;;;24.00;56.50;;;;;;5079584;28;20055;-73
2023/07/21 10:34:46;;;;;;;7.30;3.87;;;24.10;56.10;;;;;;5080091;28;20067;-73
2023/07/21 10:37:13;;;;;;;5.85;4.05;;;24.10;56.00;;;;;;5082554;28;20079;-71
2023/07/21 10:39:42;;;;;;;8.82;6.10;;;24.10;56.00;;;;;;5081838;28;20127;-72
2023/07/21 10:42:11;;;;;;;6.70;4.93;;;24.20;55.80;;;;;;5079070;28;20059;-72
2023/07/21 10:44:40;;;;;;;5.95;4.35;;;24.10;55.00;;;;;;5076509;28;20389;-70
2023/07/21 10:47:12;;;;;;;6.22;3.90;;;24.10;54.90;;;;;;5079038;28;20063;-73
2023/07/21 10:49:39;;;;;;;5.20;3.22;;;24.10;54.90;;;;;;5079412;28;20394;-72
2023/07/21 10:52:07;;;;;;;4.70;2.50;;;24.10;54.80;;;;;;5079275;28;20485;-71
2023/07/21 10:54:36;;;;;;;4.13;2.65;;;24.10;54.30;;;;;;5077542;28;20040;-72
2023/07/21 10:57:03;;;;;;;3.93;2.70;;;24.10;54.30;;;;;;5080206;28;20512;-72
2023/07/21 10:59:33;;;;;;;5.05;2.97;;;24.10;53.90;;;;;;5078085;27;20500;-71
2023/07/21 11:02:02;;;;;;;3.50;2.40;;;24.10;53.60;;;;;;5073723;28;20124;-71
2023/07/21 11:04:30;;;;;;;4.53;2.08;;;24.10;53.00;;;;;;5069111;28;20048;-72
2023/07/21 11:06:58;;;;;;;3.17;2.00;;;24.20;52.00;;;;;;5062313;28;20522;-72
2023/07/21 11:09:26;;;;;;;2.88;1.80;;;24.10;51.90;;;;;;5065843;28;20044;-73
2023/07/21 11:11:55;;;;;;;2.88;2.00;;;24.10;51.80;;;;;;5064306;28;20119;-71
2023/07/21 11:14:24;;;;;;;3.75;2.30;;;24.10;51.60;;;;;;5066713;28;20546;-72
2023/07/21 11:16:53;;;;;;;;;;;24.10;51.30;;;;;;5068969;28;20040;-72
2023/07/21 11:19:23;;;;;;;5.50;2.90;;;24.30;50.90;;;;;;5067453;28;19924;-72
2023/07/21 11:21:51;;;;;;;5.35;3.70;;;24.50;50.60;;;;;;5066721;28;20587;-71
2023/07/21 11:24:19;;;;;;;4.93;3.50;;;24.70;50.50;;;;;;5068225;28;20130;-73
2023/07/21 11:26:48;;;;;;;5.60;3.17;;;25.10;49.50;;;;;;5067239;28;20105;-73
2023/07/21 11:29:16;;;;;;;5.43;2.30;;;25.10;48.30;;;;;;5060891;28;20055;-71
2023/07/21 11:31:43;;;;;;;3.50;2.30;;;25.10;47.70;;;;;;5063354;28;20106;-71
2023/07/21 11:34:22;;;;;;;3.67;2.47;;;25.10;48.00;;;;;;5065724;28;20524;-71
2023/07/21 11:36:49;;;;;;;;;;;25.10;48.40;;;;;;5064412;28;20045;-71
2023/07/21 11:39:20;;;;;;;3.13;1.85;;;25.00;48.90;;;;;;5064943;28;20529;-71
2023/07/21 11:41:54;;;;;;;3.88;1.98;;;24.90;48.70;;;;;;5067496;28;20053;-70
2023/07/21 11:44:24;;;;;;;4.25;2.08;;;24.80;49.00;;;;;;5062944;28;20496;-73
2023/07/21 11:46:56;;;;;;;4.00;2.20;;;24.80;49.20;;;;;;5063348;28;20520;-72
2023/07/21 11:49:28;;;;;;;4.28;1.92;;;24.60;49.00;;;;;;5063854;28;20132;-71
2023/07/21 11:51:58;;;;;;;3.58;2.00;;;24.60;48.70;;;;;;5064495;28;20051;-72
2023/07/21 11:54:27;;;;;;;3.97;1.90;;;24.60;49.00;;;;;;5063611;28;20044;-72
2023/07/21 11:56:56;;;;;;;3.03;1.77;;;24.50;48.30;;;;;;5060891;28;20037;-71
2023/07/21 11:59:24;;;;;;;3.03;1.85;;;24.50;48.30;;;;;;5064981;28;20408;-71
2023/07/21 12:01:52;;;;;;;3.70;1.77;;;24.50;48.00;;;;;;5080670;28;20420;-72
2023/07/21 12:04:21;;;;;;;4.47;2.33;;;24.50;48.00;;;;;;5062208;28;20045;-73
2023/07/21 12:06:51;;;;;;;2.95;1.67;;;24.50;47.40;;;;;;5060074;28;20116;-73
2023/07/21 12:09:19;;;;;;;3.40;1.70;;;24.50;47.50;;;;;;5059740;28;20140;-72
2023/07/21 12:11:46;;;;;;;3.88;2.05;;;24.50;47.60;;;;;;5059644;28;20048;-71
2023/07/21 12:14:13;;;;;;;4.90;2.17;;;24.60;47.70;;;;;;5060639;28;20048;-71
2023/07/21 12:16:40;;;;;;;4.47;2.33;;;24.60;47.80;;;;;;5057123;28;20044;-71
2023/07/21 12:19:09;;;;;;;3.88;2.22;;;24.60;47.70;;;;;;5064640;28;20060;-72
2023/07/21 12:21:36;;;;;;;3.50;1.70;;;24.60;47.60;;;;;;5059958;28;20059;-71
2023/07/21 12:24:05;;;;;;;2.67;1.70;;;24.60;47.70;;;;;;5065311;28;20117;-71
2023/07/21 12:26:32;;;;;;;3.60;1.92;;;24.50;47.00;;;;;;5063802;28;20041;-71
2023/07/21 12:29:45;;;;;;;2.55;1.67;;;24.40;47.60;;;;;;5064855;28;20508;-72
2023/07/21 12:32:12;;;;;;;4.60;1.90;;;24.20;47.30;;;;;;5059343;28;20079;-70
2023/07/21 12:34:39;;;;;;;3.78;1.50;;;24.20;47.80;;;;;;5066928;28;20480;-71
2023/07/21 12:37:06;;;;;;;2.70;1.70;;;24.10;47.90;;;;;;5063706;28;20416;-71
2023/07/21 12:39:35;;;;;;;3.95;1.60;;;24.10;47.50;;;;;;5061920;28;20048;-73
2023/07/21 12:42:02;;;;;;;2.17;1.52;;;24.00;47.60;;;;;;5062629;28;20063;-72
2023/07/21 12:44:29;;;;;;;2.78;1.77;;;24.00;47.50;;;;;;5062573;28;20056;-71
2023/07/21 12:46:55;;;;;;;3.33;1.90;;;24.00;48.00;;;;;;5059923;28;20052;-71
2023/07/21 12:49:22;;;;;;;2.50;1.77;;;24.00;47.90;;;;;;5063471;28;20049;-71
2023/07/21 12:51:50;;;;;;;2.92;1.50;;;24.00;47.70;;;;;;5064192;28;20045;-72
2023/07/21 12:54:17;;;;;;;2.63;1.60;;;23.90;48.10;;;;;;5065452;28;20580;-71
2023/07/21 12:56:45;;;;;;;5.32;1.60;;;23.80;48.10;;;;;;5073595;28;20048;-71
2023/07/21 12:59:13;;;;;;;2.13;1.60;;;23.80;48.00;;;;;;5064952;28;20052;-71
2023/07/21 13:01:40;;;;;;;2.47;1.42;;;23.70;48.20;;;;;;5063412;28;20044;-73